Peleus — V2FV2 — position and weather

sailwx.info

Track history (hours):
 
Tides and Currents Weather Stations Pressure Air Temp Water Temp Dewpoint Dewpoint Depression Visibility Wind Speed Wind Dir Waves Ship Positions

Peleus

Last reported at 2016-Jun-26 13:20 UTC. Time now 2016-Jun-26 22:47 UTC.
Position N 40°28' E 005°33'.

Length 88 m; draft 4.8 m.

Type: Cargo ship. MMSI: 305810000.

Date/timePositionNaut miles runAvg speedWind from/ knotsBaromVisibWave heightAir tempDewpointWater temp
2016-Jun-26 13:20N 40°28' E 005°33'120 7.9
2016-Jun-25 22:10N 39°06' E 003°39'6 9.1
2016-Jun-25 21:33N 39°03' E 003°33'18 9.0
2016-Jun-25 19:32N 38°54' E 003°13'20 8.8
2016-Jun-25 17:13N 38°43' E 002°50'6 8.9
2016-Jun-25 16:33N 38°40' E 002°44'10 9.3
2016-Jun-25 15:30N 38°35' E 002°33'9 9.4
2016-Jun-25 14:31N 38°30' E 002°23'11 9.4
2016-Jun-25 13:23N 38°25' E 002°11'9 9.8
2016-Jun-25 12:30N 38°20' E 002°02'10 9.6
2016-Jun-25 11:31N 38°15' E 001°51'9 9.5
2016-Jun-25 10:33N 38°11' E 001°41'10 9.3
2016-Jun-25 09:27N 38°06' E 001°30'8 9.1
2016-Jun-25 08:33N 38°02' E 001°21'10 9.4
2016-Jun-25 07:32N 37°57' E 001°11'9 9.1
2016-Jun-25 06:32N 37°52' E 001°00'9 9.1
2016-Jun-25 05:33N 37°48' E 000°51'10 9.5
2016-Jun-25 04:33N 37°43' E 000°40'10 9.7
2016-Jun-25 03:33N 37°38' E 000°30'10 9.8
2016-Jun-25 02:34N 37°33' E 000°19'10 9.6
2016-Jun-25 01:34N 37°28' E 000°09'10 9.6
2016-Jun-25 00:33N 37°23' W 000°02'9 9.4
2016-Jun-24 23:33N 37°18' W 000°11'10 9.5
2016-Jun-24 22:33N 37°13' W 000°22'11 9.3
2016-Jun-24 21:22N 37°08' W 000°34'8 9.5
2016-Jun-24 20:33N 37°04' W 000°42'9 9.2
2016-Jun-24 19:33N 36°59' W 000°52'21 9.7
2016-Jun-24 17:26N 36°49' W 001°14'198 9.8
2016-Jun-23 21:10N 35°56' W 005°11'6 9.2
2016-Jun-23 20:33N 35°55' W 005°18'1 1.3
2016-Jun-23 19:32N 35°54' W 005°18'0 0.0
2016-Jun-23 18:32N 35°54' W 005°18'0 0.0
2016-Jun-23 17:32N 35°54' W 005°18'1 1.4
2016-Jun-23 16:33N 35°55' W 005°19'1 0.5
2016-Jun-23 15:32N 35°55' W 005°20'0 0.0
2016-Jun-23 14:29N 35°55' W 005°20'0 0.0
2016-Jun-23 13:32N 35°55' W 005°20'0 0.0
2016-Jun-23 12:32N 35°55' W 005°20'0 0.0
2016-Jun-23 11:29N 35°55' W 005°20'0 0.1
2016-Jun-23 10:32N 35°55' W 005°20'0 0.0
2016-Jun-23 09:32N 35°55' W 005°20'0 0.2
2016-Jun-23 08:33N 35°55' W 005°20'5 5.5
2016-Jun-23 07:33N 35°57' W 005°26'137 9.0
2016-Jun-22 16:21N 36°20' W 008°13'7 8.1
2016-Jun-22 15:29N 36°22' W 008°22'15 7.8
2016-Jun-22 13:32N 36°26' W 008°40'33 8.1
2016-Jun-22 09:30N 36°34' W 009°19'8 8.7
2016-Jun-22 08:33N 36°40' W 009°26'9 8.6
2016-Jun-22 07:32N 36°47' W 009°34'9 8.8
2016-Jun-22 06:33N 36°55' W 009°36'9 9.0
2016-Jun-22 05:33N 37°04' W 009°39'9 8.9
2016-Jun-22 04:33N 37°13' W 009°41'9 9.1
2016-Jun-22 03:33N 37°21' W 009°44'9 9.1
2016-Jun-22 02:32N 37°30' W 009°46'9 9.3
2016-Jun-22 01:34N 37°39' W 009°49'9 9.1
2016-Jun-22 00:33N 37°48' W 009°52'9 9.2
2016-Jun-21 23:33N 37°57' W 009°55'20 9.4
2016-Jun-21 21:26N 38°17' W 009°60'9 9.8
2016-Jun-21 20:33N 38°25' W 010°02'10 9.6
2016-Jun-21 19:33N 38°34' W 010°05'11 9.4
2016-Jun-21 18:23N 38°45' W 010°07'10 9.5
2016-Jun-21 17:23N 38°55' W 010°07'335 7.3
2016-Jun-19 19:18N 43°40' W 006°15'7 9.4
2016-Jun-19 18:32N 43°39' W 006°05'  
Track history (hours):
 
Tides and Currents Weather Stations Pressure Air Temp Water Temp Dewpoint Dewpoint Depression Visibility Wind Speed Wind Dir Waves Ship Positions

Peleus

Last reported at 2016-Jun-26 13:20 UTC. Time now 2016-Jun-26 22:47 UTC.
Position N 40°28' E 005°33'.

Length 88 m; draft 4.8 m.

Type: Cargo ship. MMSI: 305810000.

Date/timePositionNaut miles runAvg speedWind from/ knotsBaromVisibWave heightAir tempDewpointWater temp
2016-Jun-26 13:20N 40°28' E 005°33'120 7.9
2016-Jun-25 22:10N 39°06' E 003°39'6 9.1
2016-Jun-25 21:33N 39°03' E 003°33'18 9.0
2016-Jun-25 19:32N 38°54' E 003°13'20 8.8
2016-Jun-25 17:13N 38°43' E 002°50'6 8.9
2016-Jun-25 16:33N 38°40' E 002°44'10 9.3
2016-Jun-25 15:30N 38°35' E 002°33'9 9.4
2016-Jun-25 14:31N 38°30' E 002°23'11 9.4
2016-Jun-25 13:23N 38°25' E 002°11'9 9.8
2016-Jun-25 12:30N 38°20' E 002°02'10 9.6
2016-Jun-25 11:31N 38°15' E 001°51'9 9.5
2016-Jun-25 10:33N 38°11' E 001°41'10 9.3
2016-Jun-25 09:27N 38°06' E 001°30'8 9.1
2016-Jun-25 08:33N 38°02' E 001°21'10 9.4
2016-Jun-25 07:32N 37°57' E 001°11'9 9.1
2016-Jun-25 06:32N 37°52' E 001°00'9 9.1
2016-Jun-25 05:33N 37°48' E 000°51'10 9.5
2016-Jun-25 04:33N 37°43' E 000°40'10 9.7
2016-Jun-25 03:33N 37°38' E 000°30'10 9.8
2016-Jun-25 02:34N 37°33' E 000°19'10 9.6
2016-Jun-25 01:34N 37°28' E 000°09'10 9.6
2016-Jun-25 00:33N 37°23' W 000°02'9 9.4
2016-Jun-24 23:33N 37°18' W 000°11'10 9.5
2016-Jun-24 22:33N 37°13' W 000°22'11 9.3
2016-Jun-24 21:22N 37°08' W 000°34'8 9.5
2016-Jun-24 20:33N 37°04' W 000°42'9 9.2
2016-Jun-24 19:33N 36°59' W 000°52'21 9.7
2016-Jun-24 17:26N 36°49' W 001°14'198 9.8
2016-Jun-23 21:10N 35°56' W 005°11'6 9.2
2016-Jun-23 20:33N 35°55' W 005°18'1 1.3
2016-Jun-23 19:32N 35°54' W 005°18'0 0.0
2016-Jun-23 18:32N 35°54' W 005°18'0 0.0
2016-Jun-23 17:32N 35°54' W 005°18'1 1.4
2016-Jun-23 16:33N 35°55' W 005°19'1 0.5
2016-Jun-23 15:32N 35°55' W 005°20'0 0.0
2016-Jun-23 14:29N 35°55' W 005°20'0 0.0
2016-Jun-23 13:32N 35°55' W 005°20'0 0.0
2016-Jun-23 12:32N 35°55' W 005°20'0 0.0
2016-Jun-23 11:29N 35°55' W 005°20'0 0.1
2016-Jun-23 10:32N 35°55' W 005°20'0 0.0
2016-Jun-23 09:32N 35°55' W 005°20'0 0.2
2016-Jun-23 08:33N 35°55' W 005°20'5 5.5
2016-Jun-23 07:33N 35°57' W 005°26'137 9.0
2016-Jun-22 16:21N 36°20' W 008°13'7 8.1
2016-Jun-22 15:29N 36°22' W 008°22'15 7.8
2016-Jun-22 13:32N 36°26' W 008°40'33 8.1
2016-Jun-22 09:30N 36°34' W 009°19'8 8.7
2016-Jun-22 08:33N 36°40' W 009°26'9 8.6
2016-Jun-22 07:32N 36°47' W 009°34'9 8.8
2016-Jun-22 06:33N 36°55' W 009°36'9 9.0
2016-Jun-22 05:33N 37°04' W 009°39'9 8.9
2016-Jun-22 04:33N 37°13' W 009°41'9 9.1
2016-Jun-22 03:33N 37°21' W 009°44'9 9.1
2016-Jun-22 02:32N 37°30' W 009°46'9 9.3
2016-Jun-22 01:34N 37°39' W 009°49'9 9.1
2016-Jun-22 00:33N 37°48' W 009°52'9 9.2
2016-Jun-21 23:33N 37°57' W 009°55'20 9.4
2016-Jun-21 21:26N 38°17' W 009°60'9 9.8
2016-Jun-21 20:33N 38°25' W 010°02'10 9.6
2016-Jun-21 19:33N 38°34' W 010°05'11 9.4
2016-Jun-21 18:23N 38°45' W 010°07'10 9.5
2016-Jun-21 17:23N 38°55' W 010°07'335 7.3
2016-Jun-19 19:18N 43°40' W 006°15'7 9.4
2016-Jun-19 18:32N 43°39' W 006°05'  

Dump ship's entire track history